Time;durP1;ratioP1;P1;durP2;ratioP2;P2;SDS_P1;SDS_P2;PMS_P1;PMS_P2;Temp;Humidity;BMP_temperature;BMP_pressure;BME280_temperature;BME280_humidity;BME280_pressure;Samples;Min_cycle;Max_cycle;Signal;HPM_P1;HPM_P2
2021/05/09 00:00:32;;;;;;;9.15;4.30;;;13.80;99.90;;;;;;5073203;28;20028;-78
2021/05/09 00:02:58;;;;;;;6.70;4.10;;;13.70;99.90;;;;;;5071987;28;20111;-78
2021/05/09 00:05:24;;;;;;;8.38;4.70;;;13.70;99.90;;;;;;5072116;28;20024;-78
2021/05/09 00:07:49;;;;;;;8.45;4.18;;;13.70;99.90;;;;;;5071867;28;20030;-78
2021/05/09 00:10:17;;;;;;;9.77;4.55;;;13.60;99.90;;;;;;5072916;28;20025;-78
2021/05/09 00:12:42;;;;;;;8.75;4.15;;;13.60;99.90;;;;;;5073152;28;20396;-78
2021/05/09 00:15:12;;;;;;;8.93;4.22;;;13.60;99.90;;;;;;5071620;28;20123;-78
2021/05/09 00:17:38;;;;;;;9.23;4.07;;;13.60;99.90;;;;;;5053032;28;20017;-78
2021/05/09 00:20:09;;;;;;;7.97;4.53;;;13.50;99.90;;;;;;5052994;28;20036;-78
2021/05/09 00:22:34;;;;;;;8.35;4.05;;;13.50;99.90;;;;;;5051663;28;20032;-78
2021/05/09 00:25:01;;;;;;;9.15;4.50;;;13.50;99.90;;;;;;5051428;28;20025;-78
2021/05/09 00:27:26;;;;;;;7.50;4.05;;;13.50;99.90;;;;;;5052994;28;20029;-78
2021/05/09 00:29:52;;;;;;;7.88;4.57;;;13.40;99.90;;;;;;5051686;28;20168;-78
2021/05/09 00:32:17;;;;;;;7.22;3.78;;;13.40;99.90;;;;;;5051500;28;20057;-78
2021/05/09 00:34:43;;;;;;;5.38;4.22;;;13.40;99.90;;;;;;5068185;28;20032;-78
2021/05/09 00:37:08;;;;;;;9.68;3.70;;;13.30;99.90;;;;;;5052798;28;20029;-78
2021/05/09 00:39:34;;;;;;;5.22;3.70;;;13.30;99.90;;;;;;5051418;28;20028;-78
2021/05/09 00:42:04;;;;;;;7.38;4.22;;;13.30;99.90;;;;;;5052820;28;20087;-78
2021/05/09 00:44:30;;;;;;;6.40;4.28;;;13.30;99.90;;;;;;5052733;28;20029;-78
2021/05/09 00:46:56;;;;;;;6.65;3.97;;;13.30;99.90;;;;;;5051313;28;20373;-78
2021/05/09 00:49:22;;;;;;;6.22;4.03;;;13.30;99.90;;;;;;5052827;28;20036;-78
2021/05/09 00:51:48;;;;;;;5.78;4.20;;;13.30;99.90;;;;;;5052672;28;20446;-78
2021/05/09 00:54:19;;;;;;;5.88;3.75;;;13.30;99.90;;;;;;5052493;28;20106;-78
2021/05/09 00:56:46;;;;;;;8.57;4.38;;;13.30;99.90;;;;;;5051316;28;20395;-78
2021/05/09 00:59:14;;;;;;;6.05;4.07;;;13.30;99.90;;;;;;5052643;28;20017;-78
2021/05/09 01:01:42;;;;;;;8.90;4.28;;;13.30;99.90;;;;;;5051319;28;20021;-78
2021/05/09 01:04:09;;;;;;;6.63;4.05;;;13.30;99.90;;;;;;5052634;28;20108;-78
2021/05/09 01:06:35;;;;;;;7.25;4.28;;;13.30;99.90;;;;;;5051184;28;20021;-78
2021/05/09 01:09:01;;;;;;;4.63;3.72;;;13.30;99.90;;;;;;5052537;28;20025;-78
2021/05/09 01:11:27;;;;;;;5.55;4.28;;;13.30;99.90;;;;;;5067770;28;20025;-78
2021/05/09 01:13:52;;;;;;;6.78;4.30;;;13.30;99.90;;;;;;5052571;28;20167;-78
2021/05/09 01:16:18;;;;;;;7.53;4.20;;;13.30;99.90;;;;;;5062662;28;20033;-78
2021/05/09 01:18:43;;;;;;;10.10;4.50;;;13.30;99.90;;;;;;5076259;28;20444;-78
2021/05/09 01:21:09;;;;;;;5.53;4.00;;;13.20;99.90;;;;;;5075954;28;20971;-78
2021/05/09 01:23:34;;;;;;;7.85;4.10;;;13.20;99.90;;;;;;5076273;28;20021;-78
2021/05/09 01:26:00;;;;;;;7.57;4.13;;;13.10;99.90;;;;;;5075750;28;20020;-78
2021/05/09 01:28:25;;;;;;;5.95;3.90;;;13.10;99.90;;;;;;5075999;28;20059;-78
2021/05/09 01:30:51;;;;;;;8.98;4.55;;;13.10;99.90;;;;;;5074708;28;20538;-78
2021/05/09 01:33:16;;;;;;;9.32;4.22;;;13.10;99.90;;;;;;5075755;28;20083;-78
2021/05/09 01:35:42;;;;;;;10.57;5.25;;;13.10;99.90;;;;;;5074496;28;20547;-78
2021/05/09 01:38:08;;;;;;;10.40;4.40;;;13.10;99.90;;;;;;5075866;28;20487;-78
2021/05/09 01:40:33;;;;;;;5.85;4.07;;;13.10;99.90;;;;;;5075606;28;20025;-78
2021/05/09 01:42:59;;;;;;;6.63;4.50;;;13.10;99.90;;;;;;5074542;28;20043;-78
2021/05/09 01:45:24;;;;;;;5.97;4.22;;;13.10;99.90;;;;;;5074394;28;20399;-78
2021/05/09 01:47:50;;;;;;;12.43;5.43;;;13.10;99.90;;;;;;5074286;28;20020;-78
2021/05/09 01:50:17;;;;;;;7.55;4.75;;;13.10;99.90;;;;;;5074362;28;20016;-78
2021/05/09 01:52:43;;;;;;;7.68;4.30;;;13.10;99.90;;;;;;5075642;28;20023;-78
2021/05/09 01:55:12;;;;;;;7.75;4.40;;;13.10;99.90;;;;;;5074200;28;20025;-78
2021/05/09 01:57:38;;;;;;;10.52;4.68;;;13.10;99.90;;;;;;5074030;28;20031;-78
2021/05/09 02:00:12;;;;;;;6.78;4.75;;;13.10;99.90;;;;;;5075706;28;20041;-78
2021/05/09 02:02:38;;;;;;;7.70;4.60;;;13.10;99.90;;;;;;5074197;28;20036;-78
2021/05/09 02:05:05;;;;;;;9.60;4.90;;;13.10;99.90;;;;;;5075309;28;20024;-78
2021/05/09 02:07:31;;;;;;;6.95;4.22;;;13.10;99.90;;;;;;5075260;28;20032;-78
2021/05/09 02:09:56;;;;;;;9.93;5.18;;;13.10;99.90;;;;;;5075144;28;20029;-78
2021/05/09 02:12:22;;;;;;;11.65;5.05;;;13.10;99.90;;;;;;5073821;28;20020;-78
2021/05/09 02:14:47;;;;;;;8.95;4.60;;;13.10;99.90;;;;;;5073807;28;20055;-78
2021/05/09 02:17:13;;;;;;;8.82;5.40;;;13.10;99.90;;;;;;5073559;28;20660;-78
2021/05/09 02:19:38;;;;;;;7.65;4.32;;;13.00;99.90;;;;;;5075147;28;20024;-78
2021/05/09 02:22:04;;;;;;;6.22;4.32;;;13.00;99.90;;;;;;5074947;28;20483;-78
2021/05/09 02:24:30;;;;;;;7.38;4.38;;;13.00;99.90;;;;;;5073555;28;20032;-78
2021/05/09 02:26:55;;;;;;;9.77;4.60;;;12.90;99.90;;;;;;5073434;28;20024;-78
2021/05/09 02:29:21;;;;;;;8.32;4.57;;;12.80;99.90;;;;;;5072599;28;20499;-78
2021/05/09 02:31:46;;;;;;;9.88;4.93;;;12.80;99.90;;;;;;5073253;28;20045;-78
2021/05/09 02:34:12;;;;;;;8.10;4.80;;;12.80;99.90;;;;;;5073378;28;20040;-78
2021/05/09 02:36:37;;;;;;;11.02;4.97;;;12.90;99.90;;;;;;5074650;28;20025;-78
2021/05/09 02:39:03;;;;;;;8.10;4.80;;;12.90;99.90;;;;;;5073299;28;20165;-78
2021/05/09 02:41:29;;;;;;;9.52;5.88;;;12.90;99.90;;;;;;5074487;28;20059;-78
2021/05/09 02:43:54;;;;;;;8.23;5.10;;;12.80;99.90;;;;;;5073402;28;20060;-78
2021/05/09 02:46:20;;;;;;;9.68;4.63;;;12.80;99.90;;;;;;5073129;28;20031;-78
2021/05/09 02:48:45;;;;;;;8.90;4.75;;;12.80;99.90;;;;;;5073265;28;20103;-78
2021/05/09 02:51:11;;;;;;;7.35;4.65;;;12.70;99.90;;;;;;5073152;28;20387;-78
2021/05/09 02:53:36;;;;;;;7.22;5.68;;;12.70;99.90;;;;;;5073131;28;20032;-78
2021/05/09 02:56:02;;;;;;;7.82;5.60;;;12.70;99.90;;;;;;5074220;28;20512;-78
2021/05/09 02:58:27;;;;;;;11.20;5.10;;;12.70;99.90;;;;;;5074048;28;20422;-78
2021/05/09 03:00:53;;;;;;;7.40;4.82;;;12.70;99.90;;;;;;5074176;28;20040;-78
2021/05/09 03:03:19;;;;;;;10.45;4.88;;;12.70;99.90;;;;;;5074183;28;20020;-78
2021/05/09 03:05:44;;;;;;;9.23;5.40;;;12.70;99.90;;;;;;5074149;28;20107;-78
2021/05/09 03:08:10;;;;;;;7.97;5.00;;;12.70;99.90;;;;;;5073965;28;20024;-77
2021/05/09 03:10:36;;;;;;;6.78;5.07;;;12.70;99.90;;;;;;5073975;28;20447;-78
2021/05/09 03:13:02;;;;;;;6.32;4.90;;;12.70;99.90;;;;;;5073935;28;20032;-78
2021/05/09 03:15:27;;;;;;;7.07;5.03;;;12.70;99.90;;;;;;5072466;28;20588;-78
2021/05/09 03:17:53;;;;;;;6.65;4.57;;;12.60;99.90;;;;;;5073854;28;20095;-78
2021/05/09 03:20:19;;;;;;;9.18;4.88;;;12.60;99.90;;;;;;5073908;28;20532;-78
2021/05/09 03:22:44;;;;;;;11.15;5.25;;;12.60;99.90;;;;;;5073764;28;20024;-77
2021/05/09 03:25:10;;;;;;;9.48;4.43;;;12.60;99.90;;;;;;5072415;28;20028;-78
2021/05/09 03:27:35;;;;;;;8.95;4.63;;;12.60;99.90;;;;;;5072229;28;20117;-78
2021/05/09 03:30:01;;;;;;;6.97;4.78;;;12.60;99.90;;;;;;5072476;28;20052;-78
2021/05/09 03:32:26;;;;;;;8.70;4.68;;;12.50;99.90;;;;;;5073433;28;20044;-77
2021/05/09 03:34:52;;;;;;;6.35;4.60;;;12.50;99.90;;;;;;5072205;28;20052;-78
2021/05/09 03:37:18;;;;;;;7.13;4.60;;;12.40;99.90;;;;;;5073468;28;20433;-78
2021/05/09 03:39:43;;;;;;;7.32;5.05;;;12.30;99.90;;;;;;5072071;28;20564;-78
2021/05/09 03:42:09;;;;;;;7.90;4.82;;;12.20;99.90;;;;;;5073456;28;20024;-78
2021/05/09 03:44:34;;;;;;;6.90;4.47;;;12.10;99.90;;;;;;5072058;28;20050;-77
2021/05/09 03:47:00;;;;;;;8.10;5.55;;;12.10;99.90;;;;;;5072063;28;20383;-78
2021/05/09 03:49:26;;;;;;;6.40;5.07;;;12.00;99.90;;;;;;5072056;28;20052;-78
2021/05/09 03:51:51;;;;;;;7.53;5.22;;;12.00;99.90;;;;;;5073389;28;20028;-78
2021/05/09 03:54:17;;;;;;;8.82;4.85;;;12.00;99.90;;;;;;5071937;28;20036;-78
2021/05/09 03:56:42;;;;;;;6.55;5.07;;;12.00;99.90;;;;;;5072034;28;20027;-78
2021/05/09 03:59:08;;;;;;;9.02;5.18;;;11.90;99.90;;;;;;5071784;28;20020;-78
2021/05/09 04:01:34;;;;;;;8.73;4.85;;;11.90;99.90;;;;;;5071788;28;20487;-77
2021/05/09 04:03:59;;;;;;;7.75;5.38;;;11.80;99.90;;;;;;5071635;28;20054;-78
2021/05/09 04:06:25;;;;;;;8.75;5.57;;;11.90;99.90;;;;;;5070942;28;20111;-78
2021/05/09 04:08:50;;;;;;;7.20;5.78;;;11.90;99.90;;;;;;5073019;28;20025;-78
2021/05/09 04:11:17;;;;;;;7.63;5.88;;;11.90;99.90;;;;;;5072966;28;20541;-78
2021/05/09 04:13:47;;;;;;;8.10;5.00;;;11.90;99.90;;;;;;5073041;28;20043;-78
2021/05/09 04:16:13;;;;;;;8.35;5.80;;;11.80;99.90;;;;;;5071661;28;20422;-78
2021/05/09 04:18:38;;;;;;;9.95;6.90;;;11.80;99.90;;;;;;5071702;28;20047;-78
2021/05/09 04:21:04;;;;;;;8.93;6.22;;;11.80;99.90;;;;;;5071856;28;20494;-78
2021/05/09 04:23:30;;;;;;;8.48;6.35;;;11.80;99.90;;;;;;5072976;28;20032;-78
2021/05/09 04:25:55;;;;;;;9.23;7.20;;;11.80;99.90;;;;;;5072952;28;20053;-78
2021/05/09 04:28:22;;;;;;;8.73;6.35;;;11.80;99.90;;;;;;5072850;28;20056;-78
2021/05/09 04:30:48;;;;;;;11.45;7.22;;;11.80;99.90;;;;;;5071225;28;20028;-78
2021/05/09 04:33:14;;;;;;;9.32;6.70;;;11.80;99.90;;;;;;5072708;28;20059;-78
2021/05/09 04:35:44;;;;;;;10.00;6.97;;;11.80;99.90;;;;;;5071343;28;20029;-78
2021/05/09 04:38:11;;;;;;;11.00;7.78;;;11.80;99.90;;;;;;5072938;28;20034;-78
2021/05/09 04:40:37;;;;;;;10.25;7.50;;;11.80;99.90;;;;;;5071607;28;20050;-78
2021/05/09 04:43:10;;;;;;;10.23;7.68;;;11.80;99.90;;;;;;5072843;28;20074;-78
2021/05/09 04:45:36;;;;;;;9.55;7.68;;;11.80;99.90;;;;;;5072575;28;20024;-78
2021/05/09 04:48:04;;;;;;;12.10;7.63;;;11.80;99.90;;;;;;5072774;28;20095;-78
2021/05/09 04:50:30;;;;;;;10.48;7.82;;;11.90;99.90;;;;;;5071415;28;20032;-78
2021/05/09 04:52:55;;;;;;;11.05;8.32;;;11.90;99.90;;;;;;5074727;28;20048;-78
2021/05/09 04:55:21;;;;;;;13.25;8.15;;;12.00;99.90;;;;;;5063008;28;20063;-78
2021/05/09 04:57:47;;;;;;;11.25;7.55;;;12.00;99.90;;;;;;5055358;28;20074;-78
2021/05/09 05:00:14;;;;;;;9.70;7.55;;;12.00;99.90;;;;;;5068997;28;20032;-77
2021/05/09 05:02:42;;;;;;;10.38;8.38;;;12.10;99.90;;;;;;5074953;28;20028;-78
2021/05/09 05:05:08;;;;;;;11.02;7.85;;;12.10;99.90;;;;;;5091275;28;20032;-78
2021/05/09 05:07:34;;;;;;;12.68;8.25;;;12.20;99.90;;;;;;5057003;28;20529;-78
2021/05/09 05:09:59;;;;;;;12.93;8.07;;;12.30;99.90;;;;;;5054886;28;20471;-78
2021/05/09 05:12:25;;;;;;;12.13;7.65;;;12.30;99.90;;;;;;5055013;28;20028;-78
2021/05/09 05:14:50;;;;;;;13.93;7.45;;;12.40;99.90;;;;;;5071451;28;20025;-78
2021/05/09 05:17:16;;;;;;;13.65;8.43;;;12.40;99.90;;;;;;5073617;28;20535;-78
2021/05/09 05:19:41;;;;;;;10.70;7.18;;;12.50;99.90;;;;;;5074828;28;20025;-78
2021/05/09 05:22:07;;;;;;;12.63;7.35;;;12.60;99.90;;;;;;5074685;28;20112;-78
2021/05/09 05:24:32;;;;;;;15.27;8.27;;;12.60;99.90;;;;;;5074590;28;20056;-78
2021/05/09 05:26:58;;;;;;;8.23;7.22;;;12.60;99.90;;;;;;5076100;28;20021;-78
2021/05/09 05:29:24;;;;;;;11.18;7.70;;;12.70;99.90;;;;;;5074307;28;20063;-78
2021/05/09 05:31:50;;;;;;;9.48;7.50;;;12.70;99.90;;;;;;5074353;28;20020;-78
2021/05/09 05:34:17;;;;;;;10.05;7.85;;;12.80;99.90;;;;;;5075867;28;20024;-78
2021/05/09 05:36:43;;;;;;;9.68;7.97;;;12.90;99.90;;;;;;5075853;28;20024;-78
2021/05/09 05:39:08;;;;;;;9.02;7.13;;;12.90;99.90;;;;;;5074461;28;20078;-78
2021/05/09 05:41:34;;;;;;;8.73;7.50;;;12.90;99.90;;;;;;5074520;28;20024;-78
2021/05/09 05:44:00;;;;;;;15.98;8.45;;;12.90;99.90;;;;;;5074500;28;20021;-78
2021/05/09 05:46:30;;;;;;;10.90;7.13;;;13.00;99.90;;;;;;5074149;28;20047;-78
2021/05/09 05:48:56;;;;;;;9.73;6.95;;;13.00;99.90;;;;;;5075335;28;20020;-78
2021/05/09 05:51:21;;;;;;;12.00;8.00;;;13.00;99.90;;;;;;5075719;28;20158;-78
2021/05/09 05:53:47;;;;;;;11.00;7.20;;;13.00;99.90;;;;;;5075466;28;20094;-78
2021/05/09 05:56:12;;;;;;;8.60;6.53;;;13.00;99.90;;;;;;5074142;28;20025;-78
2021/05/09 05:58:38;;;;;;;8.68;6.10;;;13.10;99.90;;;;;;5074096;28;20026;-78
2021/05/09 06:01:03;;;;;;;10.73;6.65;;;13.10;99.90;;;;;;5073845;28;20056;-78
2021/05/09 06:03:29;;;;;;;9.75;7.05;;;13.20;99.90;;;;;;5075285;28;20035;-78
2021/05/09 06:05:57;;;;;;;7.13;5.95;;;13.30;99.90;;;;;;5075347;28;20519;-78
2021/05/09 06:08:23;;;;;;;8.88;6.28;;;13.40;99.90;;;;;;5075322;28;20024;-78
2021/05/09 06:10:49;;;;;;;6.38;5.50;;;13.50;99.90;;;;;;5073564;28;20028;-78
2021/05/09 06:13:15;;;;;;;8.80;6.10;;;13.50;99.90;;;;;;5075215;28;20387;-78
2021/05/09 06:15:41;;;;;;;8.98;5.70;;;13.60;99.90;;;;;;5074897;28;20025;-78
2021/05/09 06:18:06;;;;;;;7.63;6.05;;;13.60;99.90;;;;;;5073685;28;20025;-78
2021/05/09 06:20:32;;;;;;;7.97;6.57;;;13.60;99.90;;;;;;5075058;28;20051;-78
2021/05/09 06:22:59;;;;;;;8.30;5.88;;;13.60;99.90;;;;;;5073276;28;20063;-78
2021/05/09 06:25:26;;;;;;;8.63;6.75;;;13.70;99.90;;;;;;5073141;28;20024;-78
2021/05/09 06:27:52;;;;;;;7.78;6.57;;;13.70;99.90;;;;;;5075014;28;20028;-87
2021/05/09 06:30:18;;;;;;;8.25;6.03;;;13.70;99.90;;;;;;5072518;28;20029;-78
2021/05/09 06:32:44;;;;;;;8.57;6.07;;;13.90;99.90;;;;;;5073338;28;20087;-78
2021/05/09 06:35:10;;;;;;;8.45;7.13;;;14.00;99.90;;;;;;5071998;28;20017;-81
2021/05/09 06:37:36;;;;;;;7.35;5.57;;;14.10;99.90;;;;;;5073049;28;20027;-78
2021/05/09 06:40:02;;;;;;;8.25;5.72;;;14.20;99.90;;;;;;5073901;28;20449;-79
2021/05/09 06:42:28;;;;;;;6.82;5.85;;;14.30;99.90;;;;;;5074233;28;20016;-78
2021/05/09 06:44:58;;;;;;;7.60;5.55;;;14.50;99.90;;;;;;5070000;28;20747;-78
2021/05/09 06:47:24;;;;;;;5.95;5.38;;;14.60;99.90;;;;;;5072826;28;20116;-79
2021/05/09 06:49:50;;;;;;;6.82;5.45;;;14.70;99.90;;;;;;5072578;28;20464;-78
2021/05/09 06:52:15;;;;;;;7.57;5.10;;;14.80;99.90;;;;;;5074021;28;20085;-78
2021/05/09 06:54:41;;;;;;;6.57;5.10;;;15.00;99.80;;;;;;5073815;28;20107;-78
2021/05/09 06:57:07;;;;;;;7.90;5.40;;;15.10;99.30;;;;;;5073950;28;20044;-78
2021/05/09 06:59:33;;;;;;;5.60;4.88;;;15.30;98.80;;;;;;5073709;28;20438;-78
2021/05/09 07:01:58;;;;;;;8.40;4.85;;;15.40;98.50;;;;;;5073626;28;20021;-78
2021/05/09 07:04:24;;;;;;;7.07;4.10;;;15.50;98.40;;;;;;5073649;28;20099;-78
2021/05/09 07:06:50;;;;;;;4.97;4.20;;;15.60;97.80;;;;;;5073596;28;20095;-79
2021/05/09 07:09:15;;;;;;;5.43;4.18;;;15.70;97.00;;;;;;5073718;28;20017;-78
2021/05/09 07:11:41;;;;;;;5.65;3.47;;;15.80;96.80;;;;;;5072355;28;20472;-79
2021/05/09 07:14:06;;;;;;;7.55;3.78;;;15.90;96.20;;;;;;5073056;28;20021;-78
2021/05/09 07:16:32;;;;;;;4.18;2.97;;;16.00;96.70;;;;;;5073260;28;20017;-79
2021/05/09 07:19:00;;;;;;;8.40;4.10;;;16.10;95.40;;;;;;5073368;28;20008;-79
2021/05/09 07:21:32;;;;;;;5.30;3.67;;;16.20;95.10;;;;;;5072401;28;20150;-79
2021/05/09 07:23:57;;;;;;;5.43;3.15;;;16.30;95.00;;;;;;5058899;28;20096;-78
2021/05/09 07:26:23;;;;;;;3.60;2.78;;;16.50;94.50;;;;;;5072550;28;20163;-79
2021/05/09 07:28:49;;;;;;;4.63;3.38;;;16.60;94.70;;;;;;5072144;28;20035;-79
2021/05/09 07:31:14;;;;;;;3.50;2.80;;;16.70;94.20;;;;;;5073550;28;20044;-79
2021/05/09 07:33:41;;;;;;;6.97;3.38;;;16.70;93.70;;;;;;5072078;28;20491;-79
2021/05/09 07:36:07;;;;;;;5.85;3.30;;;16.70;93.10;;;;;;5073541;28;20036;-79
2021/05/09 07:38:32;;;;;;;5.28;3.22;;;16.80;92.80;;;;;;5072331;28;20025;-79
2021/05/09 07:40:58;;;;;;;4.60;2.72;;;16.80;93.20;;;;;;5083140;28;20028;-78
2021/05/09 07:43:24;;;;;;;5.93;3.63;;;16.90;92.80;;;;;;5070544;28;20024;-78
2021/05/09 07:45:49;;;;;;;4.68;3.30;;;16.90;93.10;;;;;;5091596;28;20024;-79
2021/05/09 07:48:15;;;;;;;6.88;3.28;;;17.00;93.10;;;;;;5076198;28;20020;-79
2021/05/09 07:50:41;;;;;;;5.05;2.80;;;17.10;93.30;;;;;;5073190;28;20108;-79
2021/05/09 07:53:07;;;;;;;3.95;2.80;;;17.10;92.90;;;;;;5071549;28;20035;-79
2021/05/09 07:55:32;;;;;;;4.85;3.13;;;17.20;92.90;;;;;;5072722;28;20099;-79
2021/05/09 07:57:58;;;;;;;4.30;3.03;;;17.20;92.60;;;;;;5072775;28;20045;-79
2021/05/09 08:00:25;;;;;;;4.90;3.33;;;17.30;92.90;;;;;;5071410;28;20035;-79
2021/05/09 08:02:51;;;;;;;3.58;2.88;;;17.50;93.00;;;;;;5071442;28;20040;-79
2021/05/09 08:05:22;;;;;;;5.97;2.75;;;17.60;92.40;;;;;;5072701;28;20369;-80
2021/05/09 08:07:52;;;;;;;4.50;2.78;;;17.80;92.80;;;;;;5071237;28;20028;-81
2021/05/09 08:10:18;;;;;;;4.25;2.47;;;18.00;90.70;;;;;;5071663;28;20081;-79
2021/05/09 08:12:44;;;;;;;3.63;2.80;;;18.10;90.60;;;;;;5073030;28;20065;-78
2021/05/09 08:15:10;;;;;;;6.88;2.75;;;18.10;90.00;;;;;;5072806;28;20056;-78
2021/05/09 08:17:36;;;;;;;4.72;2.50;;;18.10;90.30;;;;;;5072989;28;20476;-78
2021/05/09 08:20:04;;;;;;;2.55;2.17;;;18.10;90.50;;;;;;5072880;28;20032;-78
2021/05/09 08:22:29;;;;;;;4.70;2.47;;;18.30;90.30;;;;;;5071656;28;20017;-78
2021/05/09 08:24:55;;;;;;;3.00;2.42;;;18.50;91.00;;;;;;5071541;28;20021;-78
2021/05/09 08:27:20;;;;;;;5.35;3.08;;;18.70;90.30;;;;;;5075677;28;20545;-78
2021/05/09 08:29:46;;;;;;;3.22;2.20;;;18.90;89.90;;;;;;5076543;28;20029;-80
2021/05/09 08:32:11;;;;;;;3.67;2.33;;;19.10;86.80;;;;;;5076034;28;20040;-79
2021/05/09 08:34:37;;;;;;;3.45;2.63;;;19.30;85.60;;;;;;5075009;28;20042;-79
2021/05/09 08:37:03;;;;;;;3.92;2.63;;;19.40;86.10;;;;;;5076524;28;20071;-79
2021/05/09 08:39:28;;;;;;;6.85;3.05;;;19.50;84.60;;;;;;5075022;28;20044;-79
2021/05/09 08:41:54;;;;;;;3.97;2.97;;;19.40;84.10;;;;;;5076379;28;20495;-79
2021/05/09 08:44:19;;;;;;;6.70;3.13;;;19.40;85.70;;;;;;5076308;28;20104;-79
2021/05/09 08:46:46;;;;;;;3.38;2.10;;;19.30;86.10;;;;;;5075082;28;20048;-79
2021/05/09 08:49:14;;;;;;;6.10;2.60;;;19.40;86.60;;;;;;5076435;28;20032;-80
2021/05/09 08:51:40;;;;;;;7.70;2.63;;;19.60;85.80;;;;;;5085957;28;20031;-80
2021/05/09 08:54:06;;;;;;;4.80;2.65;;;19.80;85.90;;;;;;5074016;28;20021;-79
2021/05/09 08:56:32;;;;;;;3.85;2.40;;;19.90;85.90;;;;;;5074176;28;20074;-79
2021/05/09 08:58:58;;;;;;;4.70;3.42;;;20.00;84.30;;;;;;5089659;28;20479;-80
2021/05/09 09:01:31;;;;;;;5.68;3.17;;;20.00;83.30;;;;;;5075453;28;20025;-80
2021/05/09 09:03:57;;;;;;;6.28;3.28;;;20.00;83.80;;;;;;5073431;28;20073;-79
2021/05/09 09:06:46;;;;;;;4.15;3.22;;;19.90;82.20;;;;;;5071346;28;20063;-79
2021/05/09 09:09:25;;;;;;;5.85;3.78;;;20.00;84.40;;;;;;5074574;28;20059;-79
2021/05/09 09:11:56;;;;;;;4.20;3.28;;;20.00;84.70;;;;;;5073922;28;20029;-79
2021/05/09 09:14:26;;;;;;;4.65;3.67;;;20.10;85.90;;;;;;5071579;28;20017;-79
2021/05/09 09:17:11;;;;;;;5.20;4.43;;;20.20;87.10;;;;;;5090736;28;20464;-79
2021/05/09 09:20:00;;;;;;;6.07;4.25;;;20.30;86.80;;;;;;5073905;28;20534;-80
2021/05/09 09:22:27;;;;;;;5.28;4.05;;;20.50;87.40;;;;;;5073087;28;20025;-79
2021/05/09 09:25:05;;;;;;;5.43;3.63;;;20.70;84.50;;;;;;5071272;28;20033;-79
2021/05/09 09:27:30;;;;;;;4.57;3.60;;;20.80;83.10;;;;;;5089751;28;20405;-80
2021/05/09 09:30:03;;;;;;;6.72;4.05;;;20.70;82.90;;;;;;5056893;28;20112;-80
2021/05/09 09:32:29;;;;;;;4.28;3.67;;;20.70;84.90;;;;;;5069385;28;20090;-79
2021/05/09 09:34:54;;;;;;;6.28;4.00;;;20.70;85.50;;;;;;5070380;28;20020;-79
2021/05/09 09:37:20;;;;;;;7.20;4.72;;;20.90;86.40;;;;;;5071931;28;20051;-79
2021/05/09 09:39:54;;;;;;;7.53;4.60;;;21.20;84.90;;;;;;5073978;28;20127;-79
2021/05/09 09:42:40;;;;;;;3.38;2.97;;;21.30;82.80;;;;;;5069905;28;20044;-80
2021/05/09 09:45:25;;;;;;;4.43;3.55;;;21.60;84.50;;;;;;5085286;28;20489;-79
2021/05/09 09:47:55;;;;;;;3.83;3.40;;;21.70;83.40;;;;;;5074064;28;20020;-79
2021/05/09 09:50:40;;;;;;;6.07;3.60;;;21.80;81.70;;;;;;5069069;28;20112;-80
2021/05/09 09:53:28;;;;;;;6.53;3.78;;;22.20;82.00;;;;;;5071233;28;20036;-80
2021/05/09 09:56:03;;;;;;;5.57;3.70;;;22.50;79.60;;;;;;5058886;28;20017;-80
2021/05/09 09:58:55;;;;;;;5.88;3.13;;;23.20;78.50;;;;;;5082992;28;20047;-77
2021/05/09 10:01:27;;;;;;;4.43;2.97;;;24.90;75.10;;;;;;5067435;28;20028;-79
2021/05/09 10:03:54;;;;;;;3.00;2.70;;;26.60;68.10;;;;;;5071275;28;20017;-79
2021/05/09 10:06:21;;;;;;;4.68;2.97;;;27.10;62.50;;;;;;5073584;28;20024;-79
2021/05/09 10:08:47;;;;;;;3.63;2.65;;;27.60;63.40;;;;;;5072011;28;20029;-79
2021/05/09 10:11:13;;;;;;;4.72;2.58;;;28.50;59.00;;;;;;5072520;28;20020;-80
2021/05/09 10:13:39;;;;;;;3.47;2.22;;;28.70;56.20;;;;;;5072291;28;20023;-80
2021/05/09 10:16:06;;;;;;;3.65;1.80;;;29.00;56.70;;;;;;5073326;28;20032;-79
2021/05/09 10:18:32;;;;;;;3.80;2.38;;;29.50;54.60;;;;;;5068080;28;20035;-79
2021/05/09 10:20:59;;;;;;;3.28;1.90;;;29.20;54.10;;;;;;5073502;28;20039;-79
2021/05/09 10:23:25;;;;;;;4.32;2.10;;;28.10;55.10;;;;;;5071770;28;20020;-81
2021/05/09 10:25:55;;;;;;;4.13;2.20;;;28.00;56.50;;;;;;5071913;28;20043;-80
2021/05/09 10:28:26;;;;;;;5.38;1.85;;;28.80;54.80;;;;;;5089086;28;20021;-79
2021/05/09 10:30:57;;;;;;;2.78;1.58;;;29.60;55.20;;;;;;5073051;28;20407;-80
2021/05/09 10:33:38;;;;;;;3.28;1.58;;;29.30;52.60;;;;;;5070394;28;20057;-80
2021/05/09 10:36:04;;;;;;;5.35;1.73;;;28.00;54.30;;;;;;5071960;28;20107;-80
2021/05/09 10:38:30;;;;;;;3.72;2.20;;;27.60;56.40;;;;;;5071381;28;20024;-80
2021/05/09 10:41:12;;;;;;;4.38;2.20;;;27.20;56.30;;;;;;5070119;28;20017;-80
2021/05/09 10:43:38;;;;;;;4.30;2.10;;;26.50;58.40;;;;;;5086843;28;20122;-80
2021/05/09 10:46:05;;;;;;;3.75;2.22;;;25.60;60.80;;;;;;5061675;28;20369;-81
2021/05/09 10:48:32;;;;;;;3.40;2.88;;;25.00;62.30;;;;;;5072475;28;20044;-80
2021/05/09 10:51:01;;;;;;;8.38;2.35;;;24.50;63.90;;;;;;5072586;28;20020;-80
2021/05/09 10:53:40;;;;;;;5.13;3.42;;;24.20;66.60;;;;;;5072628;28;20095;-80
2021/05/09 10:56:15;;;;;;;3.15;1.88;;;24.20;66.20;;;;;;5067166;28;20108;-81
2021/05/09 10:58:46;;;;;;;2.60;2.17;;;24.10;66.70;;;;;;5086192;28;20109;-80
2021/05/09 11:01:20;;;;;;;3.42;1.90;;;23.90;66.00;;;;;;5072268;28;20017;-80
2021/05/09 11:03:50;;;;;;;3.88;2.17;;;24.00;64.60;;;;;;5082200;28;20482;-79
2021/05/09 11:06:25;;;;;;;4.25;2.28;;;23.70;64.50;;;;;;5070091;28;20047;-80
2021/05/09 11:09:02;;;;;;;3.80;2.20;;;23.40;66.50;;;;;;5072397;28;20024;-80
2021/05/09 11:11:28;;;;;;;2.83;2.00;;;23.30;67.50;;;;;;5072269;28;20025;-80
2021/05/09 11:14:00;;;;;;;2.97;1.80;;;23.20;68.30;;;;;;5088369;28;20905;-80
2021/05/09 11:16:27;;;;;;;3.45;1.60;;;23.30;68.70;;;;;;5086231;28;20103;-79
2021/05/09 11:19:06;;;;;;;3.58;2.20;;;24.20;68.20;;;;;;5064931;28;20025;-78
2021/05/09 11:21:36;;;;;;;3.15;2.10;;;25.00;64.10;;;;;;5062296;28;20062;-79
2021/05/09 11:24:07;;;;;;;5.93;1.73;;;25.00;64.40;;;;;;5070930;28;20059;-79
2021/05/09 11:26:39;;;;;;;3.05;1.70;;;24.70;64.90;;;;;;5089697;28;20031;-79
2021/05/09 11:29:09;;;;;;;3.38;1.92;;;24.40;65.60;;;;;;5085943;28;20399;-79
2021/05/09 11:31:40;;;;;;;4.30;1.63;;;24.10;67.00;;;;;;5088317;28;20441;-81
2021/05/09 11:34:05;;;;;;;4.38;2.08;;;24.20;67.90;;;;;;5051593;28;20053;-80
2021/05/09 11:36:33;;;;;;;3.13;1.40;;;24.40;67.90;;;;;;5047984;28;20069;-80
2021/05/09 11:39:09;;;;;;;3.05;1.73;;;25.10;66.20;;;;;;5052185;28;20013;-80
2021/05/09 11:41:51;;;;;;;3.55;1.73;;;25.30;63.30;;;;;;5072717;28;20049;-79
2021/05/09 11:44:18;;;;;;;2.70;1.67;;;25.10;65.20;;;;;;5079819;28;20540;-80
2021/05/09 11:46:43;;;;;;;3.00;1.88;;;24.70;65.30;;;;;;5087047;28;20106;-80
2021/05/09 11:49:17;;;;;;;2.67;1.50;;;24.40;66.20;;;;;;5073910;28;20119;-80
2021/05/09 11:51:51;;;;;;;2.90;1.83;;;24.20;67.70;;;;;;5090731;28;20034;-80
2021/05/09 11:54:17;;;;;;;4.35;1.80;;;23.90;68.00;;;;;;5084136;28;20020;-80
2021/05/09 11:56:54;;;;;;;2.47;1.50;;;23.70;67.60;;;;;;5090376;28;20028;-80
2021/05/09 11:59:33;;;;;;;3.17;1.67;;;23.60;68.20;;;;;;5065489;28;20056;-80
2021/05/09 12:02:00;;;;;;;2.22;1.50;;;23.40;68.20;;;;;;5058975;28;20405;-80
2021/05/09 12:04:32;;;;;;;4.88;1.75;;;23.30;68.20;;;;;;5072473;28;20031;-80
2021/05/09 12:07:02;;;;;;;4.22;1.63;;;23.20;68.80;;;;;;5070976;28;20085;-80
2021/05/09 12:09:29;;;;;;;3.33;1.80;;;23.20;69.00;;;;;;5071045;28;20021;-79
2021/05/09 12:11:57;;;;;;;2.95;1.70;;;23.10;69.30;;;;;;5070693;28;20024;-80
2021/05/09 12:14:27;;;;;;;4.05;2.63;;;23.10;69.10;;;;;;5088174;28;20490;-80
2021/05/09 12:16:53;;;;;;;2.92;1.40;;;23.10;69.00;;;;;;5071862;28;20112;-80
2021/05/09 12:19:27;;;;;;;4.10;1.80;;;23.10;69.50;;;;;;5070234;28;20031;-81
2021/05/09 12:21:57;;;;;;;4.82;1.67;;;23.10;69.80;;;;;;5070429;28;20062;-81
2021/05/09 12:24:23;;;;;;;2.45;1.38;;;23.00;67.40;;;;;;5048907;28;20025;-79
2021/05/09 12:27:07;;;;;;;2.03;1.50;;;23.00;67.60;;;;;;5069630;28;20040;-80
2021/05/09 12:29:52;;;;;;;2.47;1.30;;;23.00;68.10;;;;;;5069930;28;20450;-80
2021/05/09 12:32:30;;;;;;;3.65;1.70;;;23.00;68.70;;;;;;5086504;28;20147;-80
2021/05/09 12:35:08;;;;;;;2.85;1.52;;;22.80;68.50;;;;;;5086808;28;20029;-80
2021/05/09 12:37:56;;;;;;;1.73;1.30;;;22.80;68.70;;;;;;5067031;28;20055;-80
2021/05/09 12:40:29;;;;;;;1.58;0.98;;;22.70;69.10;;;;;;5068684;28;20094;-79
2021/05/09 12:43:04;;;;;;;2.17;1.23;;;22.60;70.70;;;;;;5071487;28;20364;-81
2021/05/09 12:45:43;;;;;;;5.88;1.60;;;22.50;70.90;;;;;;5069977;28;20028;-81
2021/05/09 12:48:30;;;;;;;4.10;1.25;;;22.40;72.60;;;;;;5067638;28;20039;-80